createdAt,value
2023-01-07T00:00:31.909Z,97.13
2023-01-07T00:01:31.785Z,97.33
2023-01-07T00:02:31.833Z,97.23
2023-01-07T00:03:31.784Z,97.13
2023-01-07T00:04:31.862Z,97.33
2023-01-07T00:05:31.830Z,97.44
2023-01-07T00:06:31.715Z,97.13
2023-01-07T00:07:31.698Z,97.13
2023-01-07T00:08:31.694Z,96.72
2023-01-07T00:09:31.679Z,97.33
2023-01-07T00:10:31.689Z,97.13
2023-01-07T00:11:31.664Z,96.92
2023-01-07T00:12:31.642Z,97.03
2023-01-07T00:13:31.632Z,97.03
2023-01-07T00:14:31.660Z,96.88
2023-01-07T00:15:31.609Z,97.44
2023-01-07T00:16:31.601Z,97.44
2023-01-07T00:17:31.596Z,97.33
2023-01-07T00:18:31.589Z,96.92
2023-01-07T00:19:31.593Z,97.13
2023-01-07T00:20:31.694Z,97.33
2023-01-07T00:21:31.575Z,96.78
2023-01-07T00:22:31.530Z,97.64
2023-01-07T00:23:31.521Z,97.64
2023-01-07T00:24:31.508Z,97.39
2023-01-07T00:25:31.519Z,98.32
2023-01-07T00:26:31.533Z,97.95
2023-01-07T00:27:31.478Z,97.95
2023-01-07T00:28:31.465Z,98.11
2023-01-07T00:29:31.454Z,97.85
2023-01-07T00:30:31.474Z,97.95
2023-01-07T00:31:31.541Z,97.95
2023-01-07T00:32:31.419Z,97.85
2023-01-07T00:33:31.408Z,97.85
2023-01-07T00:34:31.403Z,98.16
2023-01-07T00:35:31.457Z,98.16
2023-01-07T00:36:31.494Z,98.16
2023-01-07T00:37:31.362Z,98.46
2023-01-07T00:38:31.378Z,98.46
2023-01-07T00:39:31.385Z,98.57
2023-01-07T00:40:32.326Z,98.36
2023-01-07T00:41:31.330Z,98.46
2023-01-07T00:42:31.375Z,98.36
2023-01-07T00:43:31.297Z,98.57
2023-01-07T00:44:31.319Z,98.67
2023-01-07T00:45:31.284Z,98.46
2023-01-07T00:46:31.360Z,98.36
2023-01-07T00:47:31.258Z,98.16
2023-01-07T00:48:31.242Z,98.36
2023-01-07T00:49:31.234Z,98.57
2023-01-07T00:50:31.227Z,98.57
2023-01-07T00:51:31.254Z,98.57
2023-01-07T00:52:31.328Z,98.25
2023-01-07T00:53:31.190Z,98.25
2023-01-07T00:54:31.197Z,98.16
2023-01-07T00:55:31.163Z,98.25
2023-01-07T00:56:31.181Z,98.36
2023-01-07T00:57:31.145Z,98.67
2023-01-07T00:58:31.144Z,98.36
2023-01-07T00:59:31.121Z,98.25
2023-01-07T01:00:31.188Z,98.67
2023-01-07T01:01:31.285Z,98.67
2023-01-07T01:02:31.185Z,98.77
2023-01-07T01:03:31.083Z,98.46
2023-01-07T01:04:31.067Z,98.67
2023-01-07T01:05:39.116Z,98.57
2023-01-07T01:06:31.068Z,98.77
2023-01-07T01:07:31.037Z,98.67
2023-01-07T01:08:31.158Z,98.25
2023-01-07T01:09:31.023Z,98.36
2023-01-07T01:10:46.318Z,98.16
2023-01-07T01:11:31.219Z,98.00
2023-01-07T01:12:31.191Z,97.85
2023-01-07T01:13:31.141Z,98.00
2023-01-07T01:14:31.113Z,97.95
2023-01-07T01:15:31.089Z,98.21
2023-01-07T01:16:31.038Z,98.11
2023-01-07T01:17:31.016Z,98.00
2023-01-07T01:18:31.175Z,97.49
2023-01-07T01:19:31.017Z,97.39
2023-01-07T01:20:31.061Z,97.29
2023-01-07T01:21:31.131Z,97.49
2023-01-07T01:22:30.943Z,97.80
2023-01-07T01:23:30.975Z,97.49
2023-01-07T01:24:31.068Z,96.78
2023-01-07T01:25:30.977Z,97.39
2023-01-07T01:26:31.017Z,97.19
2023-01-07T01:27:30.966Z,97.08
2023-01-07T01:28:31.120Z,96.88
2023-01-07T01:29:30.962Z,97.29
2023-01-07T01:30:30.919Z,97.19
2023-01-07T01:31:30.901Z,96.98
2023-01-07T01:32:31.811Z,97.08
2023-01-07T01:33:31.014Z,96.98
2023-01-07T01:34:30.929Z,97.29
2023-01-07T01:35:30.845Z,97.39
2023-01-07T01:36:30.863Z,96.67
2023-01-07T01:37:30.861Z,96.78
2023-01-07T01:38:30.984Z,96.78
2023-01-07T01:39:30.851Z,96.57
2023-01-07T01:40:30.829Z,96.47
2023-01-07T01:41:32.001Z,96.78
2023-01-07T01:42:30.798Z,96.98
2023-01-07T01:43:30.862Z,96.67
2023-01-07T01:44:30.795Z,96.57
2023-01-07T01:45:30.781Z,96.78
2023-01-07T01:46:30.846Z,96.78
2023-01-07T01:47:30.778Z,96.78
2023-01-07T01:48:30.803Z,96.78
2023-01-07T01:49:30.744Z,96.88
2023-01-07T01:50:30.749Z,96.78
2023-01-07T01:51:30.750Z,96.78
2023-01-07T01:52:30.692Z,96.78
2023-01-07T01:53:30.740Z,96.67
2023-01-07T01:54:30.729Z,96.78
2023-01-07T01:55:30.778Z,96.12
2023-01-07T01:56:30.672Z,96.37
2023-01-07T01:57:30.597Z,96.26
2023-01-07T01:58:30.674Z,96.37
2023-01-07T01:59:30.594Z,96.37
2023-01-07T02:00:30.491Z,96.37
2023-01-07T02:01:30.599Z,96.37
2023-01-07T02:02:30.460Z,96.26
2023-01-07T02:03:30.413Z,96.67
2023-01-07T02:04:30.409Z,96.16
2023-01-07T02:05:30.420Z,96.26
2023-01-07T02:06:30.377Z,96.88
2023-01-07T02:07:30.367Z,96.78
2023-01-07T02:08:32.381Z,96.26
2023-01-07T02:09:30.811Z,96.73
2023-01-07T02:10:30.337Z,96.06
2023-01-07T02:11:30.320Z,96.78
2023-01-07T02:12:30.420Z,96.88
2023-01-07T02:13:30.304Z,96.37
2023-01-07T02:14:30.327Z,96.37
2023-01-07T02:15:30.283Z,95.75
2023-01-07T02:16:30.350Z,96.16
2023-01-07T02:17:30.322Z,95.95
2023-01-07T02:18:30.311Z,96.16
2023-01-07T02:19:30.266Z,95.95
2023-01-07T02:20:30.240Z,96.26
2023-01-07T02:21:30.234Z,95.95
2023-01-07T02:22:30.225Z,96.16
2023-01-07T02:23:30.190Z,96.16
2023-01-07T02:24:30.182Z,96.47
2023-01-07T02:25:30.455Z,96.16
2023-01-07T02:26:30.152Z,96.16
2023-01-07T02:27:30.163Z,96.57
2023-01-07T02:28:30.264Z,96.47
2023-01-07T02:29:30.131Z,96.47
2023-01-07T02:30:30.141Z,96.16
2023-01-07T02:31:30.241Z,96.26
2023-01-07T02:32:30.119Z,96.16
2023-01-07T02:33:30.101Z,96.16
2023-01-07T02:34:30.103Z,96.57
2023-01-07T02:35:30.077Z,96.06
2023-01-07T02:36:30.039Z,96.06
2023-01-07T02:37:30.035Z,96.06
2023-01-07T02:38:30.050Z,96.06
2023-01-07T02:39:30.018Z,96.26
2023-01-07T02:40:30.048Z,96.88
2023-01-07T02:41:29.999Z,97.03
2023-01-07T02:42:29.977Z,97.03
2023-01-07T02:43:29.993Z,96.92
2023-01-07T02:44:30.070Z,97.03
2023-01-07T02:45:30.048Z,96.92
2023-01-07T02:46:29.936Z,96.82
2023-01-07T02:47:29.934Z,96.82
2023-01-07T02:48:29.931Z,96.82
2023-01-07T02:49:29.900Z,96.57
2023-01-07T02:50:29.967Z,96.82
2023-01-07T02:51:29.894Z,96.92
2023-01-07T02:52:29.901Z,96.82
2023-01-07T02:53:29.861Z,96.92
2023-01-07T02:54:29.992Z,96.78
2023-01-07T02:55:29.868Z,96.62
2023-01-07T02:56:29.824Z,96.78
2023-01-07T02:57:29.823Z,96.88
2023-01-07T02:58:29.814Z,96.16
2023-01-07T02:59:29.934Z,96.37
2023-01-07T03:00:29.912Z,96.26
2023-01-07T03:01:29.923Z,96.41
2023-01-07T03:02:29.785Z,96.10
2023-01-07T03:03:29.798Z,96.37
2023-01-07T03:04:29.758Z,96.20
2023-01-07T03:05:30.738Z,96.37
2023-01-07T03:06:29.787Z,96.16
2023-01-07T03:07:55.851Z,96.37
2023-01-07T03:08:29.691Z,95.95
2023-01-07T03:09:29.830Z,96.16
2023-01-07T03:10:29.694Z,96.26
2023-01-07T03:11:30.011Z,96.16
2023-01-07T03:12:29.731Z,96.41
2023-01-07T03:13:31.132Z,96.20
2023-01-07T03:14:29.635Z,96.16
2023-01-07T03:15:29.623Z,96.16
2023-01-07T03:16:30.154Z,96.10
2023-01-07T03:17:29.743Z,96.26
2023-01-07T03:18:29.591Z,96.06
2023-01-07T03:19:29.711Z,96.06
2023-01-07T03:20:30.925Z,96.10
2023-01-07T03:21:34.320Z,96.41
2023-01-07T03:22:29.687Z,95.95
2023-01-07T03:23:29.648Z,95.95
2023-01-07T03:24:29.648Z,96.20
2023-01-07T03:25:29.740Z,96.16
2023-01-07T03:26:29.693Z,96.00
2023-01-07T03:27:29.671Z,96.20
2023-01-07T03:28:29.620Z,96.20
2023-01-07T03:29:29.505Z,96.62
2023-01-07T03:30:29.626Z,96.16
2023-01-07T03:31:29.595Z,96.20
2023-01-07T03:32:29.568Z,96.26
2023-01-07T03:33:29.547Z,95.86
2023-01-07T03:34:29.423Z,95.86
2023-01-07T03:35:29.418Z,95.86
2023-01-07T03:36:29.392Z,96.06
2023-01-07T03:37:29.373Z,95.86
2023-01-07T03:38:29.367Z,95.65
2023-01-07T03:39:29.358Z,95.44
2023-01-07T03:40:29.356Z,95.34
2023-01-07T03:41:29.335Z,95.34
2023-01-07T03:42:29.314Z,95.54
2023-01-07T03:43:29.327Z,95.54
2023-01-07T03:44:29.317Z,96.06
2023-01-07T03:45:29.380Z,95.95
2023-01-07T03:46:29.283Z,95.95
2023-01-07T03:47:29.292Z,95.86
2023-01-07T03:48:29.374Z,95.44
2023-01-07T03:49:29.258Z,95.24
2023-01-07T03:50:29.220Z,95.44
2023-01-07T03:51:29.213Z,95.65
2023-01-07T03:52:29.207Z,95.65
2023-01-07T03:53:29.214Z,96.06
2023-01-07T03:54:29.188Z,95.34
2023-01-07T03:55:29.186Z,95.44
2023-01-07T03:56:29.167Z,95.44
2023-01-07T03:57:29.268Z,95.54
2023-01-07T03:58:29.193Z,95.65
2023-01-07T03:59:29.415Z,95.54
2023-01-07T04:00:29.264Z,95.75
2023-01-07T04:01:29.253Z,95.39
2023-01-07T04:02:29.096Z,95.54
2023-01-07T04:03:29.105Z,95.44
2023-01-07T04:04:29.260Z,95.54
2023-01-07T04:05:29.072Z,95.44
2023-01-07T04:06:29.196Z,95.86
2023-01-07T04:07:29.279Z,95.86
2023-01-07T04:08:29.025Z,95.65
2023-01-07T04:09:29.018Z,95.44
2023-01-07T04:10:29.044Z,95.86
2023-01-07T04:11:29.000Z,95.54
2023-01-07T04:12:29.012Z,95.75
2023-01-07T04:13:28.991Z,95.44
2023-01-07T04:14:28.977Z,95.28
2023-01-07T04:15:28.991Z,95.44
2023-01-07T04:16:28.964Z,95.44
2023-01-07T04:17:28.936Z,95.24
2023-01-07T04:18:28.929Z,95.24
2023-01-07T04:19:28.905Z,95.44
2023-01-07T04:20:29.040Z,95.54
2023-01-07T04:21:28.891Z,95.54
2023-01-07T04:22:28.892Z,95.34
2023-01-07T04:23:28.869Z,95.34
2023-01-07T04:24:28.874Z,95.54
2023-01-07T04:25:28.874Z,95.28
2023-01-07T04:26:28.869Z,95.59
2023-01-07T04:27:28.858Z,95.44
2023-01-07T04:28:28.913Z,95.54
2023-01-07T04:29:28.819Z,95.65
2023-01-07T04:30:28.865Z,95.59
2023-01-07T04:31:28.806Z,95.65
2023-01-07T04:32:28.763Z,95.54
2023-01-07T04:33:28.759Z,95.75
2023-01-07T04:34:28.800Z,95.69
2023-01-07T04:35:28.746Z,95.86
2023-01-07T04:36:28.859Z,95.54
2023-01-07T04:37:28.707Z,95.44
2023-01-07T04:38:28.694Z,95.54
2023-01-07T04:39:28.693Z,95.86
2023-01-07T04:40:28.683Z,95.90
2023-01-07T04:41:28.700Z,95.86
2023-01-07T04:42:28.662Z,95.75
2023-01-07T04:43:28.637Z,95.86
2023-01-07T04:44:28.657Z,95.34
2023-01-07T04:45:28.683Z,95.59
2023-01-07T04:46:28.653Z,95.75
2023-01-07T04:47:28.637Z,95.75
2023-01-07T04:48:28.589Z,95.75
2023-01-07T04:49:28.572Z,95.44
2023-01-07T04:50:28.599Z,95.75
2023-01-07T04:51:28.560Z,95.79
2023-01-07T04:52:28.669Z,95.75
2023-01-07T04:53:28.549Z,95.86
2023-01-07T04:54:28.519Z,95.59
2023-01-07T04:55:28.529Z,95.49
2023-01-07T04:56:28.491Z,95.44
2023-01-07T04:57:28.497Z,96.06
2023-01-07T04:58:28.481Z,95.59
2023-01-07T04:59:28.482Z,95.79
2023-01-07T05:00:28.523Z,94.83
2023-01-07T05:01:28.553Z,94.87
2023-01-07T05:02:28.440Z,95.39
2023-01-07T05:03:28.419Z,95.18
2023-01-07T05:04:28.464Z,95.07
2023-01-07T05:05:28.406Z,95.18
2023-01-07T05:06:28.409Z,94.87
2023-01-07T05:07:28.390Z,94.98
2023-01-07T05:08:28.475Z,95.14
2023-01-07T05:09:28.357Z,94.98
2023-01-07T05:10:28.361Z,95.07
2023-01-07T05:11:28.363Z,95.28
2023-01-07T05:12:28.343Z,95.18
2023-01-07T05:13:28.314Z,95.14
2023-01-07T05:14:28.309Z,94.83
2023-01-07T05:15:28.299Z,94.98
2023-01-07T05:16:28.487Z,94.42
2023-01-07T05:17:28.278Z,94.21
2023-01-07T05:18:28.271Z,94.52
2023-01-07T05:19:28.238Z,94.52
2023-01-07T05:20:28.228Z,94.83
2023-01-07T05:21:28.246Z,94.62
2023-01-07T05:22:28.208Z,94.42
2023-01-07T05:23:28.241Z,94.73
2023-01-07T05:24:28.306Z,94.83
2023-01-07T05:25:28.201Z,94.62
2023-01-07T05:26:28.171Z,94.73
2023-01-07T05:27:28.164Z,94.26
2023-01-07T05:28:28.170Z,94.52
2023-01-07T05:29:28.130Z,94.32
2023-01-07T05:30:28.128Z,94.62
2023-01-07T05:31:28.130Z,94.21
2023-01-07T05:32:28.124Z,94.42
2023-01-07T05:33:28.106Z,94.21
2023-01-07T05:34:28.068Z,94.52
2023-01-07T05:35:28.096Z,94.73
2023-01-07T05:36:28.061Z,94.62
2023-01-07T05:37:28.061Z,94.93
2023-01-07T05:38:28.036Z,94.62
2023-01-07T05:39:28.029Z,94.42
2023-01-07T05:40:28.162Z,94.17
2023-01-07T05:41:28.047Z,94.42
2023-01-07T05:42:27.986Z,94.42
2023-01-07T05:43:27.979Z,93.90
2023-01-07T05:44:28.035Z,93.80
2023-01-07T05:45:27.955Z,94.01
2023-01-07T05:46:28.037Z,93.08
2023-01-07T05:47:27.948Z,93.39
2023-01-07T05:48:27.920Z,93.90
2023-01-07T05:49:27.932Z,93.29
2023-01-07T05:50:27.914Z,93.49
2023-01-07T05:51:27.933Z,94.68
2023-01-07T05:52:27.875Z,94.52
2023-01-07T05:53:27.905Z,94.52
2023-01-07T05:54:27.852Z,94.52
2023-01-07T05:55:27.855Z,94.52
2023-01-07T05:56:27.975Z,94.42
2023-01-07T05:57:27.822Z,94.42
2023-01-07T05:58:27.812Z,94.62
2023-01-07T05:59:27.812Z,94.62
2023-01-07T06:00:27.789Z,94.42
2023-01-07T06:01:27.853Z,94.83
2023-01-07T06:02:27.799Z,94.42
2023-01-07T06:03:27.890Z,94.73
2023-01-07T06:04:27.786Z,94.83
2023-01-07T06:05:27.754Z,94.62
2023-01-07T06:06:27.733Z,94.73
2023-01-07T06:07:27.737Z,94.42
2023-01-07T06:08:27.796Z,94.73
2023-01-07T06:09:27.706Z,94.62
2023-01-07T06:10:27.682Z,94.42
2023-01-07T06:11:27.678Z,94.42
2023-01-07T06:12:27.790Z,94.62
2023-01-07T06:13:27.654Z,93.70
2023-01-07T06:14:27.693Z,94.01
2023-01-07T06:15:27.727Z,94.32
2023-01-07T06:16:27.635Z,94.62
2023-01-07T06:17:27.639Z,94.52
2023-01-07T06:18:27.597Z,94.32
2023-01-07T06:19:27.573Z,94.42
2023-01-07T06:20:27.562Z,93.90
2023-01-07T06:21:27.569Z,93.80
2023-01-07T06:22:27.559Z,93.49
2023-01-07T06:23:27.562Z,94.01
2023-01-07T06:24:27.538Z,93.70
2023-01-07T06:25:27.538Z,94.32
2023-01-07T06:26:27.513Z,93.70
2023-01-07T06:27:27.493Z,93.70
2023-01-07T06:28:27.651Z,94.62
2023-01-07T06:29:27.486Z,94.42
2023-01-07T06:30:27.449Z,94.11
2023-01-07T06:31:27.571Z,94.11
2023-01-07T06:32:27.434Z,94.42
2023-01-07T06:33:27.481Z,94.83
2023-01-07T06:34:27.410Z,94.67
2023-01-07T06:35:27.420Z,94.56
2023-01-07T06:36:27.418Z,94.26
2023-01-07T06:37:27.391Z,94.36
2023-01-07T06:38:27.370Z,94.56
2023-01-07T06:39:27.366Z,94.73
2023-01-07T06:40:27.375Z,94.93
2023-01-07T06:41:27.335Z,94.42
2023-01-07T06:42:27.320Z,94.67
2023-01-07T06:43:27.304Z,94.67
2023-01-07T06:44:27.471Z,94.46
2023-01-07T06:45:27.310Z,94.77
2023-01-07T06:46:27.368Z,94.98
2023-01-07T06:47:27.271Z,94.83
2023-01-07T06:48:27.270Z,94.87
2023-01-07T06:49:27.297Z,94.67
2023-01-07T06:50:27.241Z,94.77
2023-01-07T06:51:27.220Z,94.87
2023-01-07T06:52:27.225Z,94.67
2023-01-07T06:53:27.196Z,94.87
2023-01-07T06:54:27.209Z,94.87
2023-01-07T06:55:27.272Z,95.18
2023-01-07T06:56:27.180Z,94.77
2023-01-07T06:57:27.174Z,94.98
2023-01-07T06:58:27.165Z,95.90
2023-01-07T06:59:27.134Z,94.87
2023-01-07T07:00:27.236Z,95.07
2023-01-07T07:01:27.215Z,94.87
2023-01-07T07:02:27.262Z,95.18
2023-01-07T07:03:27.140Z,94.98
2023-01-07T07:04:27.090Z,95.79
2023-01-07T07:05:27.086Z,95.90
2023-01-07T07:06:27.048Z,95.49
2023-01-07T07:07:27.041Z,95.59
2023-01-07T07:08:27.029Z,95.84
2023-01-07T07:09:27.028Z,95.59
2023-01-07T07:10:27.009Z,95.59
2023-01-07T07:11:27.023Z,95.59
2023-01-07T07:12:26.991Z,95.49
2023-01-07T07:13:26.980Z,96.10
2023-01-07T07:14:26.962Z,95.90
2023-01-07T07:15:27.014Z,95.59
2023-01-07T07:16:27.134Z,95.69
2023-01-07T07:17:26.945Z,95.69
2023-01-07T07:18:26.973Z,95.84
2023-01-07T07:19:26.907Z,95.59
2023-01-07T07:20:26.900Z,95.53
2023-01-07T07:21:26.912Z,95.28
2023-01-07T07:22:26.920Z,95.32
2023-01-07T07:23:26.883Z,95.49
2023-01-07T07:24:26.860Z,95.59
2023-01-07T07:25:26.841Z,95.59
2023-01-07T07:26:26.848Z,95.59
2023-01-07T07:27:26.828Z,95.18
2023-01-07T07:28:26.854Z,94.77
2023-01-07T07:29:26.794Z,94.36
2023-01-07T07:30:46.692Z,94.52
2023-01-07T07:31:27.825Z,94.73
2023-01-07T07:32:26.888Z,94.83
2023-01-07T07:33:26.788Z,94.83
2023-01-07T07:34:26.777Z,94.42
2023-01-07T07:35:26.729Z,94.32
2023-01-07T07:36:26.746Z,94.62
2023-01-07T07:37:26.705Z,94.52
2023-01-07T07:38:26.700Z,94.42
2023-01-07T07:39:26.714Z,94.52
2023-01-07T07:40:26.695Z,94.62
2023-01-07T07:41:26.665Z,94.52
2023-01-07T07:42:26.654Z,94.32
2023-01-07T07:43:26.668Z,94.56
2023-01-07T07:44:26.635Z,94.21
2023-01-07T07:45:26.615Z,94.21
2023-01-07T07:46:26.697Z,94.32
2023-01-07T07:47:26.601Z,94.42
2023-01-07T07:48:26.705Z,94.42
2023-01-07T07:49:26.594Z,94.52
2023-01-07T07:50:26.573Z,94.62
2023-01-07T07:51:26.550Z,94.32
2023-01-07T07:52:26.545Z,94.62
2023-01-07T07:53:26.536Z,94.21
2023-01-07T07:54:26.540Z,94.21
2023-01-07T07:55:26.786Z,94.52
2023-01-07T07:56:26.497Z,94.52
2023-01-07T07:57:26.645Z,94.42
2023-01-07T07:58:26.580Z,94.32
2023-01-07T07:59:26.520Z,94.52
2023-01-07T08:00:26.459Z,94.42
2023-01-07T08:01:26.606Z,93.70
2023-01-07T08:02:26.586Z,93.39
2023-01-07T08:03:26.512Z,94.01
2023-01-07T08:04:26.559Z,93.39
2023-01-07T08:05:26.389Z,93.60
2023-01-07T08:06:26.387Z,93.39
2023-01-07T08:07:32.079Z,93.49
2023-01-07T08:08:27.363Z,93.49
2023-01-07T08:09:26.348Z,93.60
2023-01-07T08:10:26.349Z,93.60
2023-01-07T08:11:26.332Z,93.70
2023-01-07T08:12:26.348Z,93.60
2023-01-07T08:13:26.334Z,93.49
2023-01-07T08:14:26.304Z,93.39
2023-01-07T08:15:26.292Z,93.60
2023-01-07T08:16:26.356Z,93.49
2023-01-07T08:17:26.273Z,93.70
2023-01-07T08:18:26.272Z,93.60
2023-01-07T08:19:26.243Z,93.08
2023-01-07T08:20:26.377Z,93.08
2023-01-07T08:21:26.250Z,92.88
2023-01-07T08:22:26.221Z,93.19
2023-01-07T08:23:26.197Z,93.08
2023-01-07T08:24:26.218Z,92.88
2023-01-07T08:25:26.187Z,92.98
2023-01-07T08:26:26.163Z,92.98
2023-01-07T08:27:26.154Z,92.78
2023-01-07T08:28:26.155Z,92.47
2023-01-07T08:29:26.169Z,92.88
2023-01-07T08:30:26.191Z,92.68
2023-01-07T08:31:26.177Z,92.47
2023-01-07T08:32:26.116Z,92.47
2023-01-07T08:33:26.104Z,92.78
2023-01-07T08:34:26.083Z,92.78
2023-01-07T08:35:26.097Z,93.19
2023-01-07T08:36:26.184Z,93.29
2023-01-07T08:37:26.033Z,92.68
2023-01-07T08:38:26.052Z,92.36
2023-01-07T08:39:26.012Z,93.08
2023-01-07T08:40:26.100Z,93.08
2023-01-07T08:41:26.015Z,92.83
2023-01-07T08:42:25.992Z,92.74
2023-01-07T08:43:25.969Z,92.43
2023-01-07T08:44:25.968Z,92.43
2023-01-07T08:45:25.985Z,92.43
2023-01-07T08:46:26.036Z,92.53
2023-01-07T08:47:25.933Z,92.32
2023-01-07T08:48:25.918Z,92.74
2023-01-07T08:49:25.904Z,92.63
2023-01-07T08:50:25.906Z,92.22
2023-01-07T08:51:25.914Z,92.12
2023-01-07T08:52:25.996Z,91.71
2023-01-07T08:53:25.881Z,91.91
2023-01-07T08:54:25.852Z,92.32
2023-01-07T08:55:25.835Z,91.71
2023-01-07T08:56:25.828Z,91.71
2023-01-07T08:57:25.821Z,91.82
2023-01-07T08:58:25.842Z,91.40
2023-01-07T08:59:25.791Z,92.32
2023-01-07T09:00:25.810Z,91.71
2023-01-07T09:01:25.946Z,92.43
2023-01-07T09:02:25.828Z,91.91
2023-01-07T09:03:25.752Z,91.61
2023-01-07T09:04:25.750Z,91.61
2023-01-07T09:05:25.760Z,91.61
2023-01-07T09:06:25.755Z,91.40
2023-01-07T09:07:25.704Z,91.40
2023-01-07T09:08:25.824Z,91.61
2023-01-07T09:09:25.704Z,91.87
2023-01-07T09:10:25.703Z,91.56
2023-01-07T09:11:25.663Z,91.56
2023-01-07T09:12:25.652Z,91.77
2023-01-07T09:13:25.648Z,91.26
2023-01-07T09:14:25.628Z,91.26
2023-01-07T09:15:25.636Z,90.95
2023-01-07T09:16:25.683Z,91.87
2023-01-07T09:17:25.592Z,90.54
2023-01-07T09:18:25.581Z,90.34
2023-01-07T09:19:25.572Z,91.05
2023-01-07T09:20:25.588Z,90.23
2023-01-07T09:21:25.555Z,90.23
2023-01-07T09:22:25.548Z,90.13
2023-01-07T09:23:25.549Z,89.92
2023-01-07T09:24:25.640Z,90.03
2023-01-07T09:25:25.536Z,89.83
2023-01-07T09:26:25.500Z,90.19
2023-01-07T09:27:25.510Z,90.19
2023-01-07T09:28:25.479Z,90.09
2023-01-07T09:29:25.470Z,90.44
2023-01-07T09:30:25.477Z,89.98
2023-01-07T09:31:25.496Z,89.98
2023-01-07T09:32:25.429Z,89.98
2023-01-07T09:33:25.414Z,89.78
2023-01-07T09:34:25.399Z,89.78
2023-01-07T09:35:25.417Z,90.36
2023-01-07T09:36:25.383Z,90.05
2023-01-07T09:37:25.379Z,90.05
2023-01-07T09:38:25.369Z,89.74
2023-01-07T09:39:25.344Z,90.15
2023-01-07T09:40:25.480Z,90.15
2023-01-07T09:41:25.341Z,90.19
2023-01-07T09:42:25.358Z,89.89
2023-01-07T09:43:25.314Z,89.06
2023-01-07T09:44:25.315Z,89.78
2023-01-07T09:45:25.391Z,89.47
2023-01-07T09:46:25.275Z,89.43
2023-01-07T09:47:25.297Z,89.27
2023-01-07T09:48:25.266Z,89.78
2023-01-07T09:49:25.239Z,89.27
2023-01-07T09:50:25.473Z,89.37
2023-01-07T09:51:25.211Z,89.98
2023-01-07T09:52:25.233Z,89.47
2023-01-07T09:53:25.193Z,90.39
2023-01-07T09:54:25.197Z,90.15
2023-01-07T09:55:25.188Z,89.89
2023-01-07T09:56:25.276Z,90.39
2023-01-07T09:57:25.145Z,89.06
2023-01-07T09:58:25.138Z,89.98
2023-01-07T09:59:25.142Z,89.78
2023-01-07T10:00:25.117Z,90.36
2023-01-07T10:01:25.373Z,90.19
2023-01-07T10:02:25.161Z,89.64
2023-01-07T10:03:25.074Z,89.84
2023-01-07T10:04:25.087Z,89.43
2023-01-07T10:05:25.057Z,88.76
2023-01-07T10:06:42.010Z,88.41
2023-01-07T10:07:26.052Z,89.74
2023-01-07T10:08:29.811Z,89.53
2023-01-07T10:09:26.008Z,89.43
2023-01-07T10:10:25.027Z,89.74
2023-01-07T10:11:24.996Z,89.03
2023-01-07T10:12:25.091Z,88.82
2023-01-07T10:13:25.019Z,88.00
2023-01-07T10:14:24.975Z,88.47
2023-01-07T10:15:24.947Z,88.51
2023-01-07T10:16:24.989Z,88.31
2023-01-07T10:17:24.942Z,88.57
2023-01-07T10:18:24.903Z,88.68
2023-01-07T10:19:24.889Z,88.68
2023-01-07T10:20:24.880Z,88.47
2023-01-07T10:21:24.866Z,88.41
2023-01-07T10:22:24.893Z,88.57
2023-01-07T10:23:24.855Z,87.96
2023-01-07T10:24:24.843Z,88.06
2023-01-07T10:25:24.840Z,88.06
2023-01-07T10:26:24.825Z,88.26
2023-01-07T10:27:24.832Z,87.85
2023-01-07T10:28:24.907Z,88.06
2023-01-07T10:29:24.793Z,87.71
2023-01-07T10:30:24.816Z,88.06
2023-01-07T10:31:24.804Z,87.96
2023-01-07T10:32:24.756Z,87.85
2023-01-07T10:33:24.769Z,87.76
2023-01-07T10:34:24.738Z,88.47
2023-01-07T10:35:24.764Z,87.92
2023-01-07T10:36:24.745Z,87.92
2023-01-07T10:37:24.700Z,88.12
2023-01-07T10:38:24.701Z,88.12
2023-01-07T10:39:24.678Z,88.12
2023-01-07T10:40:24.663Z,85.88
2023-01-07T10:41:24.676Z,85.97
2023-01-07T10:42:24.635Z,87.00
2023-01-07T10:43:24.627Z,86.79
2023-01-07T10:44:24.638Z,87.00
2023-01-07T10:45:24.625Z,87.00
2023-01-07T10:46:24.615Z,87.10
2023-01-07T10:47:24.584Z,87.51
2023-01-07T10:48:24.582Z,87.71
2023-01-07T10:49:24.573Z,86.69
2023-01-07T10:50:24.902Z,86.59
2023-01-07T10:51:24.548Z,86.76
2023-01-07T10:52:24.559Z,86.96
2023-01-07T10:53:24.514Z,86.14
2023-01-07T10:54:24.570Z,86.14
2023-01-07T10:55:24.516Z,86.04
2023-01-07T10:56:24.515Z,86.44
2023-01-07T10:57:24.481Z,86.08
2023-01-07T10:58:24.480Z,85.94
2023-01-07T10:59:24.445Z,85.63
2023-01-07T11:00:24.599Z,86.18
2023-01-07T11:01:24.538Z,86.18
2023-01-07T11:02:24.686Z,86.08
2023-01-07T11:03:24.420Z,85.97
2023-01-07T11:04:24.414Z,85.67
2023-01-07T11:05:24.381Z,85.77
2023-01-07T11:06:24.376Z,86.59
2023-01-07T11:07:24.360Z,87.26
2023-01-07T11:08:24.369Z,86.38
2023-01-07T11:09:24.365Z,86.18
2023-01-07T11:10:24.325Z,86.08
2023-01-07T11:11:24.314Z,85.97
2023-01-07T11:12:24.323Z,85.77
2023-01-07T11:13:24.293Z,85.97
2023-01-07T11:14:24.307Z,86.32
2023-01-07T11:15:24.271Z,85.91
2023-01-07T11:16:24.438Z,85.71
2023-01-07T11:17:24.249Z,85.50
2023-01-07T11:18:24.249Z,86.32
2023-01-07T11:19:24.251Z,86.32
2023-01-07T11:20:24.220Z,86.12
2023-01-07T11:21:42.773Z,85.91
2023-01-07T11:22:25.191Z,86.22
2023-01-07T11:23:24.195Z,86.12
2023-01-07T11:24:24.199Z,86.12
2023-01-07T11:25:24.161Z,85.50
2023-01-07T11:26:24.170Z,86.22
2023-01-07T11:27:24.132Z,85.81
2023-01-07T11:28:24.122Z,86.22
2023-01-07T11:29:24.118Z,86.02
2023-01-07T11:30:24.110Z,85.71
2023-01-07T11:31:24.237Z,86.12
2023-01-07T11:32:24.213Z,86.22
2023-01-07T11:33:24.064Z,86.22
2023-01-07T11:34:25.048Z,86.22
2023-01-07T11:35:24.051Z,85.81
2023-01-07T11:36:24.031Z,85.91
2023-01-07T11:37:24.053Z,86.43
2023-01-07T11:38:24.051Z,86.22
2023-01-07T11:39:23.995Z,85.40
2023-01-07T11:40:24.019Z,86.12
2023-01-07T11:41:23.978Z,86.22
2023-01-07T11:42:23.972Z,85.91
2023-01-07T11:43:23.990Z,86.02
2023-01-07T11:44:23.976Z,86.32
2023-01-07T11:45:23.939Z,86.12
2023-01-07T11:46:26.110Z,85.81
2023-01-07T11:47:23.945Z,86.05
2023-01-07T11:48:24.043Z,85.85
2023-01-07T11:49:23.891Z,86.57
2023-01-07T11:50:23.893Z,86.57
2023-01-07T11:51:23.869Z,86.26
2023-01-07T11:52:23.848Z,86.36
2023-01-07T11:53:23.849Z,86.16
2023-01-07T11:54:23.840Z,86.16
2023-01-07T11:55:23.863Z,85.34
2023-01-07T11:56:23.817Z,86.26
2023-01-07T11:57:23.845Z,86.26
2023-01-07T11:58:28.114Z,86.67
2023-01-07T11:59:24.776Z,85.64
2023-01-07T12:00:23.803Z,86.36
2023-01-07T12:01:23.798Z,86.16
2023-01-07T12:02:23.897Z,85.24
2023-01-07T12:03:23.780Z,84.72
2023-01-07T12:04:23.861Z,85.03
2023-01-07T12:05:23.722Z,85.34
2023-01-07T12:06:23.700Z,84.83
2023-01-07T12:07:23.812Z,85.34
2023-01-07T12:08:23.746Z,85.55
2023-01-07T12:09:23.662Z,85.34
2023-01-07T12:10:23.687Z,86.16
2023-01-07T12:11:23.643Z,86.16
2023-01-07T12:12:23.634Z,85.75
2023-01-07T12:13:23.648Z,86.26
2023-01-07T12:14:23.602Z,85.85
2023-01-07T12:15:23.595Z,86.36
2023-01-07T12:16:23.687Z,85.28
2023-01-07T12:17:23.582Z,85.34
2023-01-07T12:18:23.559Z,85.03
2023-01-07T12:19:23.547Z,85.14
2023-01-07T12:20:23.696Z,85.34
2023-01-07T12:21:23.532Z,85.24
2023-01-07T12:22:23.529Z,84.52
2023-01-07T12:23:23.546Z,84.87
2023-01-07T12:24:23.509Z,85.24
2023-01-07T12:25:23.480Z,85.58
2023-01-07T12:26:23.468Z,86.16
2023-01-07T12:27:23.501Z,86.26
2023-01-07T12:28:23.487Z,85.89
2023-01-07T12:29:23.467Z,86.26
2023-01-07T12:30:23.476Z,85.85
2023-01-07T12:31:23.464Z,86.36
2023-01-07T12:32:23.410Z,85.64
2023-01-07T12:33:23.462Z,86.05
2023-01-07T12:34:23.380Z,85.03
2023-01-07T12:35:23.369Z,85.64
2023-01-07T12:36:23.462Z,85.34
2023-01-07T12:37:23.368Z,85.44
2023-01-07T12:38:23.355Z,85.55
2023-01-07T12:39:23.356Z,85.55
2023-01-07T12:40:23.316Z,85.10
2023-01-07T12:41:23.295Z,86.05
2023-01-07T12:42:23.307Z,86.16
2023-01-07T12:43:23.304Z,86.36
2023-01-07T12:44:23.271Z,86.02
2023-01-07T12:45:23.285Z,85.55
2023-01-07T12:46:23.278Z,85.40
2023-01-07T12:47:32.379Z,85.75
2023-01-07T12:48:24.231Z,85.85
2023-01-07T12:49:23.244Z,86.26
2023-01-07T12:50:23.220Z,85.85
2023-01-07T12:51:23.196Z,86.26
2023-01-07T12:52:23.299Z,86.20